Airfield :
LOGIN :

Register | Disclaimer

   EN    FR    IT 

 










Legend :    VFR   Marginal VFR   IFR   Intensive IFR   Very Intensive IFR
Visi :
Ceiling :
>= 8 km
>= 3000ft
5 to 8 km
1000 to 3000 ft
1500m to 5 km
500 to 1000 ft
800 to 1500m
200 to 500 ft
< 800m
< 200 ft
Symbols :   Thunderstorms  Fog  Heavy snow  Heavy precipitations  Wind > 20 kt
SIGMETs :     Misc.  Thunderstorms  Icing  Turbulence  Mountain Waves  Volcanic Ashes






- Airport Elevation : 126 ft
- IATA code : WIC


EGPC - Wick

CURRENT METAR :
  • 170520Z AUTO 28005KT 9999 BKN048/// 02/00 Q1010

EXPIRED METARs :
  • 170450Z AUTO 28004KT 9999 NCD 02/00 Q1010
  • 170420Z AUTO 28004KT 9999 NCD 02/00 Q1010
  • 170350Z AUTO 29005KT 9999 NCD 02/M00 Q1010
  • 170320Z AUTO 28004KT 9999 NCD 02/M00 Q1010
  • 170250Z AUTO 28004KT 9999 NCD 01/M00 Q1009
  • 170220Z AUTO 28004KT 9999 NCD 01/M00 Q1009

TAF TAF EGPC
Valid from the 17 at 03:00 until the 17 at 12:00 UTC


170203Z 1703/1712 27005KT 9999 FEW025
PROB40
TEMPO 1703/1712 6000
PROB30
TEMPO 1703/1712 SHRA BKN014
BECMG 1706/1709 33010KT
ATIS : +44 1955 607 596



MET'MAP, your aeronautical weather chart ! - Copyright ORBIFLY December 2007 - Disclaimer

ORBIFLY MET'MAP TEAM :

Programming & Development : Alexandra Zaïnal
Concept & Development : Baudouin d'Aumeries
Co-Development & Prog : Marc-Olivier Méhu
Technical & hardware support : Manuel Goepfert

Contact : metmap@orbifly.com




SOURCES & CREDITS :

   NOAA